windsock image

Welcome to Bigfield Strip.

anemometer image
     

 Help for dials.  
 
Local Met:

Wind:   
10 Min average:  
203 ° / 0.0 kts (0.0)
203° / 0.0

Temperature:  
-2.4°C C
Dew Point:  
-3.4°C C
QNH:  
Trend:  
1003.7 mb mb
-0.3mb/hr
BigField Strip. This image updates approximately every minute, it can have a two minute delay.  
 

Humidity:  
93 %
Sunrise:   07:27z
Sunset:   17:09z
Updated:  
  UTC
 
   More met info, trends, radar, history etc. available here   

LUTON Metar   EGGW 110350Z AUTO 26007KT 9999 NCD 00/M01 Q1003
 
  TAF   2016/02/10 18:15 TAF EGGW 101656Z 1018/1118 28008KT 9999 FEW030 PROB40 1023/1109 4000 BR
 
BENSON Metar   EGUB 110350Z 35001KT 9999 FEW040 SCT200 M03/M04 Q1004 BLU
 
  TAF   2016/02/10 21:03 TAF TAF EGUB 101938Z 1021/1024 VRB02KT 9999 FEW045
 
Big Field view 1 icon   Big Field view 2 icon   Big Field view 3 icon   Chart AL3a in PDF icon   Chart AL3a in Word icon

WARNING:
This information is provided by the Airstrip unofficial weather station, DO NOT depend on the data provided here for any purpose.
This page is updated for latest Metars & TAF's every 5 minutes. Refresh the browser to check for the lastest.
Page designed for a minimum browser size of 1024x768.
© Copyright 2016 BigField Strip. This page auto generated 04:16 UTC - 11/02/2016   Contact Us
Valid HTML 4.01 Transitional     Windows uptime: 3 Days 1 Hours 44 Minutes 4 Seconds    WD started: 02:38 08/02/16    Free memory: 1507MB     Valid CSS!